Time;durP1;ratioP1;P1;durP2;ratioP2;P2;SDS_P1;SDS_P2;PMS_P1;PMS_P2;Temp;Humidity;BMP_temperature;BMP_pressure;BME280_temperature;BME280_humidity;BME280_pressure;Samples;Min_cycle;Max_cycle;Signal;HPM_P1;HPM_P2
2021/05/31 05:00:25;;;;;;;17.23;15.73;;;;;;;11.39;97.01;94690.88;6039097;23;20017;-74
2021/05/31 05:02:50;;;;;;;19.40;17.77;;;;;;;11.40;97.78;94690.69;4894028;29;20037;-74
2021/05/31 05:05:15;;;;;;;18.42;16.67;;;;;;;11.37;96.44;94691.06;4869933;29;20377;-76
2021/05/31 05:07:47;;;;;;;16.23;14.90;;;;;;;11.51;97.15;94687.63;4877401;29;20482;-76
2021/05/31 05:10:22;;;;;;;18.63;16.88;;;;;;;11.65;96.26;94686.00;4879542;29;20029;-74
2021/05/31 05:12:51;;;;;;;18.90;17.48;;;;;;;11.53;97.11;94687.44;4860940;29;20469;-74
2021/05/31 05:15:18;;;;;;;17.63;16.23;;;;;;;11.49;97.87;94687.00;4863200;29;20029;-74
2021/05/31 05:17:44;;;;;;;15.70;14.40;;;;;;;11.63;95.88;94685.34;4861300;29;20036;-76
2021/05/31 05:20:10;;;;;;;15.98;14.73;;;;;;;11.50;95.43;94680.84;4862787;29;20368;-74
2021/05/31 05:22:36;;;;;;;16.33;14.65;;;;;;;11.54;95.35;94684.69;4877711;29;20116;-74
2021/05/31 05:25:01;;;;;;;16.02;14.68;;;;;;;11.56;94.44;94694.84;4861840;29;20062;-74
2021/05/31 05:27:27;;;;;;;15.75;14.35;;;;;;;11.58;94.97;94695.50;4878264;29;20115;-77
2021/05/31 05:29:52;;;;;;;15.30;14.07;;;;;;;11.60;95.24;94696.91;4876232;29;20553;-78
2021/05/31 05:32:18;;;;;;;15.38;14.07;;;;;;;11.50;95.55;94703.38;4878176;29;20402;-77
2021/05/31 05:34:43;;;;;;;15.57;14.32;;;;;;;11.54;94.88;94702.84;4859867;29;20231;-76
2021/05/31 05:37:13;;;;;;;15.65;14.50;;;;;;;11.67;95.08;94702.16;4870332;29;20039;-76
2021/05/31 05:42:52;;;;;;;16.20;14.80;;;;;;;11.77;95.76;94700.13;4878926;29;20027;-77
2021/05/31 05:47:49;;;;;;;17.02;15.48;;;;;;;11.91;94.72;94694.06;4877520;29;20111;-76
2021/05/31 05:50:18;;;;;;;16.63;15.10;;;;;;;11.97;94.14;94703.72;4861057;29;20048;-77
2021/05/31 05:52:43;;;;;;;18.05;16.52;;;;;;;11.91;96.07;94693.28;4861765;29;20028;-78
2021/05/31 05:55:09;;;;;;;18.63;16.92;;;;;;;11.97;94.05;94697.72;4861442;29;20076;-76
2021/05/31 05:57:35;;;;;;;18.05;16.38;;;;;;;12.07;94.61;94693.03;4862423;29;20115;-77
2021/05/31 06:00:06;;;;;;;17.33;15.93;;;;;;;12.13;93.96;94685.28;4873684;29;20112;-76
2021/05/31 06:02:32;;;;;;;18.77;17.27;;;;;;;12.05;94.01;94689.78;4894295;29;20040;-76
2021/05/31 06:04:57;;;;;;;18.00;16.40;;;;;;;12.01;93.81;94686.75;4882950;29;20036;-77
2021/05/31 06:07:23;;;;;;;16.42;15.13;;;;;;;12.25;92.78;94683.00;4866218;29;20028;-78
2021/05/31 06:09:49;;;;;;;16.77;15.38;;;;;;;12.22;92.58;94682.56;4882157;29;20461;-76
2021/05/31 06:12:14;;;;;;;15.98;14.57;;;;;;;12.88;89.99;94684.63;4868707;29;20025;-77
2021/05/31 06:14:40;;;;;;;15.60;14.43;;;;;;;12.52;90.62;94682.19;4860859;29;20017;-76
2021/05/31 06:17:05;;;;;;;15.70;14.50;;;;;;;12.78;91.08;94676.34;4874196;29;20037;-74
2021/05/31 06:19:31;;;;;;;14.73;13.52;;;;;;;12.61;90.42;94672.47;4869057;29;20044;-74
2021/05/31 06:21:56;;;;;;;14.63;13.43;;;;;;;12.86;90.90;94683.22;4858317;29;20032;-74
2021/05/31 06:24:22;;;;;;;14.25;13.15;;;;;;;13.40;88.77;94680.69;4860978;29;20048;-73
2021/05/31 06:26:48;;;;;;;13.05;11.88;;;;;;;14.51;81.26;94669.72;4874402;29;20100;-77
2021/05/31 06:29:13;;;;;;;13.05;12.13;;;;;;;13.33;84.57;94679.88;4844830;29;20028;-74
2021/05/31 06:31:39;;;;;;;15.98;12.02;;;;;;;14.19;82.43;94672.06;4859808;29;20032;-73
2021/05/31 06:34:04;;;;;;;11.82;11.02;;;;;;;15.47;79.78;94662.84;4891190;29;20033;-73
2021/05/31 06:36:32;;;;;;;12.20;11.30;;;;;;;15.53;79.83;94662.03;4876343;29;20029;-72
2021/05/31 06:38:57;;;;;;;11.52;10.35;;;;;;;14.31;83.25;94671.47;4874377;29;20032;-75
2021/05/31 06:41:23;;;;;;;11.32;10.48;;;;;;;14.34;81.50;94661.50;4872437;29;20024;-71
2021/05/31 06:43:48;;;;;;;11.38;10.35;;;;;;;14.29;81.73;94653.44;4870433;29;20044;-72
2021/05/31 06:46:14;;;;;;;10.77;10.07;;;;;;;14.44;82.33;94661.09;4889416;29;20039;-71
2021/05/31 06:48:39;;;;;;;11.15;10.35;;;;;;;14.11;82.56;94664.47;4842480;29;20037;-72
2021/05/31 06:51:05;;;;;;;11.35;10.65;;;;;;;13.74;85.35;94662.41;4841376;29;20033;-71
2021/05/31 06:53:31;;;;;;;13.35;12.38;;;;;;;13.92;85.38;94667.03;4859510;29;20079;-70
2021/05/31 06:55:56;;;;;;;11.43;10.55;;;;;;;13.53;84.22;94665.13;4889639;29;20466;-71
2021/05/31 06:58:22;;;;;;;11.65;10.85;;;;;;;13.59;83.55;94664.34;4874127;29;20977;-70
2021/05/31 07:00:47;;;;;;;13.35;11.77;;;;;;;13.23;86.09;94671.66;4889082;29;20045;-71
2021/05/31 07:03:13;;;;;;;14.77;13.57;;;;;;;13.15;86.12;94667.41;4873314;29;20036;-71
2021/05/31 07:05:38;;;;;;;15.60;14.32;;;;;;;13.19;85.57;94664.22;4856641;29;20121;-71
2021/05/31 07:08:05;;;;;;;14.00;12.93;;;;;;;13.10;87.96;94669.75;4873753;29;20525;-70
2021/05/31 07:10:31;;;;;;;12.27;11.27;;;;;;;13.41;84.87;94670.13;4858523;29;20600;-71
2021/05/31 07:12:57;;;;;;;13.13;12.13;;;;;;;13.33;85.89;94670.28;4888564;29;20059;-71
2021/05/31 07:15:24;;;;;;;13.18;12.20;;;;;;;13.70;84.44;94666.41;4857874;29;20119;-71
2021/05/31 07:17:50;;;;;;;12.75;11.75;;;;;;;14.01;81.84;94669.25;4869646;29;20029;-70
2021/05/31 07:20:15;;;;;;;11.80;10.90;;;;;;;14.05;82.41;94664.44;4863721;29;20025;-70
2021/05/31 07:22:43;;;;;;;11.82;10.85;;;;;;;14.39;84.65;94668.69;4876049;29;20076;-71
2021/05/31 07:25:09;;;;;;;12.10;11.18;;;;;;;14.97;81.12;94669.63;4873493;29;20111;-73
2021/05/31 07:27:34;;;;;;;12.10;11.27;;;;;;;15.44;78.50;94655.44;4856762;29;20036;-72
2021/05/31 07:30:00;;;;;;;11.48;10.68;;;;;;;15.07;80.09;94657.75;4870010;29;20025;-70
2021/05/31 07:32:25;;;;;;;11.77;10.88;;;;;;;15.45;78.71;94649.19;4824917;29;20032;-72
2021/05/31 07:34:51;;;;;;;10.80;10.10;;;;;;;15.01;81.34;94644.75;4856967;29;20051;-73
2021/05/31 07:37:17;;;;;;;8.60;7.90;;;;;;;15.62;76.16;94650.34;4873859;29;20040;-69
2021/05/31 07:39:42;;;;;;;7.65;7.15;;;;;;;15.11;75.68;94648.53;4872376;29;20118;-71
2021/05/31 07:42:08;;;;;;;8.98;8.38;;;;;;;15.06;76.77;94650.94;4873030;29;20050;-71
2021/05/31 07:44:33;;;;;;;8.55;7.85;;;;;;;15.00;79.47;94646.53;4854831;29;20033;-73
2021/05/31 07:47:00;;;;;;;7.50;6.85;;;;;;;15.17;77.59;94646.91;4874072;29;20037;-71
2021/05/31 07:49:25;;;;;;;7.60;6.90;;;;;;;15.00;78.44;94643.94;4887536;29;20578;-73
2021/05/31 07:51:53;;;;;;;7.45;6.95;;;;;;;15.44;74.92;94635.34;4848669;29;20032;-72
2021/05/31 07:54:20;;;;;;;6.63;6.15;;;;;;;15.11;76.92;94638.09;4871834;29;20055;-72
2021/05/31 07:56:46;;;;;;;7.65;6.75;;;;;;;15.07;77.04;94636.91;4855245;29;20060;-71
2021/05/31 07:59:11;;;;;;;7.05;6.55;;;;;;;15.21;76.08;94638.47;4858266;29;20056;-70
2021/05/31 08:01:37;;;;;;;12.93;7.10;;;;;;;15.12;76.48;94634.47;4871963;29;20092;-70
2021/05/31 08:04:05;;;;;;;8.15;7.65;;;;;;;15.17;77.63;94633.84;4890585;29;20446;-71
2021/05/31 08:06:33;;;;;;;7.28;6.68;;;;;;;15.00;76.70;94630.09;4870844;29;20033;-71
2021/05/31 08:08:58;;;;;;;7.82;7.13;;;;;;;14.76;77.55;94631.56;4848274;29;20842;-72
2021/05/31 08:11:24;;;;;;;6.47;6.03;;;;;;;14.84;78.01;94628.72;4871895;29;20024;-70
2021/05/31 08:13:49;;;;;;;7.30;6.80;;;;;;;15.01;78.61;94637.72;4858666;29;20487;-69
2021/05/31 08:16:18;;;;;;;8.55;7.85;;;;;;;14.98;75.01;94635.53;4877584;29;20031;-70
2021/05/31 08:18:43;;;;;;;7.53;6.82;;;;;;;15.26;75.40;94636.03;4860370;29;20538;-70
2021/05/31 08:21:09;;;;;;;6.80;6.32;;;;;;;15.10;76.72;94636.47;4877654;29;20119;-71
2021/05/31 08:23:34;;;;;;;5.90;5.50;;;;;;;15.27;75.60;94634.22;4875882;29;20040;-71
2021/05/31 08:26:00;;;;;;;7.25;6.03;;;;;;;15.67;74.25;94632.22;4893669;29;20039;-72
2021/05/31 08:28:25;;;;;;;5.88;5.47;;;;;;;15.76;71.61;94631.78;4876456;29;20104;-73
2021/05/31 08:30:51;;;;;;;5.30;4.88;;;;;;;15.72;72.39;94628.00;4874715;29;20391;-73
2021/05/31 08:33:16;;;;;;;5.93;5.30;;;;;;;16.12;72.81;94628.50;4877515;29;20407;-71
2021/05/31 08:35:43;;;;;;;7.68;6.15;;;;;;;16.11;70.03;94621.72;4874982;29;20036;-72
2021/05/31 08:38:10;;;;;;;5.10;4.70;;;;;;;16.34;69.11;94621.91;4860664;29;20036;-72
2021/05/31 08:40:35;;;;;;;4.40;4.10;;;;;;;16.43;66.96;94619.03;4859680;29;20040;-72
2021/05/31 08:43:01;;;;;;;4.30;4.00;;;;;;;16.35;68.19;94615.66;4876899;29;20077;-72
2021/05/31 08:45:29;;;;;;;4.85;4.47;;;;;;;16.50;67.29;94614.56;4876219;29;20028;-72
2021/05/31 08:47:54;;;;;;;5.30;4.80;;;;;;;16.07;72.05;94625.75;4860198;29;20071;-72
2021/05/31 08:50:22;;;;;;;4.80;4.50;;;;;;;16.43;68.94;94619.84;4876735;29;20661;-72
2021/05/31 08:52:49;;;;;;;4.72;4.43;;;;;;;16.59;71.51;94618.50;4874710;29;20028;-72
2021/05/31 08:55:15;;;;;;;4.80;4.40;;;;;;;16.97;68.75;94619.13;4861222;29;20405;-72
2021/05/31 08:57:41;;;;;;;5.38;4.68;;;;;;;16.90;66.92;94599.28;4874418;29;20033;-72
2021/05/31 09:00:10;;;;;;;5.53;5.13;;;;;;;17.40;69.16;94609.34;4876147;29;20032;-72
2021/05/31 09:02:36;;;;;;;5.00;4.70;;;;;;;17.65;67.19;94604.03;4875432;29;20049;-73
2021/05/31 09:05:01;;;;;;;5.22;4.82;;;;;;;17.27;64.90;94609.50;4860749;29;20028;-72
2021/05/31 09:07:27;;;;;;;5.18;4.68;;;;;;;17.96;66.53;94600.34;4876298;29;20405;-73
2021/05/31 09:09:53;;;;;;;4.15;3.85;;;;;;;18.19;61.73;94597.75;4843754;29;20518;-73
2021/05/31 09:12:22;;;;;;;7.68;4.07;;;;;;;17.73;62.98;94579.31;4842047;29;20029;-74
2021/05/31 09:14:55;;;;;;;4.75;4.35;;;;;;;17.26;63.03;94600.06;4845659;29;20029;-73
2021/05/31 09:17:28;;;;;;;5.47;4.00;;;;;;;17.69;68.70;94599.13;4842134;29;20033;-73
2021/05/31 09:19:53;;;;;;;4.22;3.92;;;;;;;18.04;64.41;94593.97;4855291;29;20391;-72
2021/05/31 09:22:20;;;;;;;3.78;3.58;;;;;;;18.00;64.69;94588.38;4872174;29;20036;-72
2021/05/31 09:25:02;;;;;;;5.05;4.65;;;;;;;17.99;64.63;94594.66;4851011;29;20033;-73
2021/05/31 09:27:28;;;;;;;4.97;3.90;;;;;;;18.27;65.18;94586.94;4865356;29;20036;-71
2021/05/31 09:30:07;;;;;;;4.05;3.80;;;;;;;17.81;64.08;94598.16;4857525;29;20021;-73
2021/05/31 09:32:32;;;;;;;4.03;3.80;;;;;;;17.80;63.58;94596.53;4871141;29;20028;-74
2021/05/31 09:35:07;;;;;;;4.80;3.88;;;;;;;17.27;65.57;94591.16;4875644;29;20040;-72
2021/05/31 09:37:33;;;;;;;4.60;4.30;;;;;;;16.97;66.31;94589.53;4860582;29;20025;-72
2021/05/31 09:40:06;;;;;;;4.55;4.15;;;;;;;16.89;64.20;94585.38;4865888;29;20465;-72
2021/05/31 09:42:32;;;;;;;4.20;3.90;;;;;;;17.06;65.30;94583.00;4882516;29;20088;-72
2021/05/31 09:45:09;;;;;;;4.25;3.95;;;;;;;17.02;64.00;94582.63;4875042;29;20483;-72
2021/05/31 09:47:35;;;;;;;4.90;4.57;;;;;;;17.37;65.50;94586.22;4879374;29;20416;-72
2021/05/31 09:50:02;;;;;;;5.55;5.15;;;;;;;17.34;67.71;94584.03;4869337;29;20044;-73
2021/05/31 09:52:27;;;;;;;5.05;4.65;;;;;;;17.49;62.89;94586.28;4881439;29;20063;-72
2021/05/31 09:54:53;;;;;;;4.60;4.30;;;;;;;17.19;65.68;94586.25;4893412;29;20025;-72
2021/05/31 09:57:26;;;;;;;5.03;4.07;;;;;;;17.58;63.95;94587.59;4840226;29;20120;-75
2021/05/31 09:59:57;;;;;;;4.78;4.40;;;;;;;17.35;65.69;94577.78;4872459;29;20038;-72
2021/05/31 10:02:37;;;;;;;4.60;4.30;;;;;;;17.56;63.71;94573.94;4890039;29;20072;-72
2021/05/31 10:09:59;;;;;;;4.35;4.00;;;;;;;17.31;65.38;94576.63;4891413;29;20563;-73
2021/05/31 10:12:26;;;;;;;4.35;3.67;;;;;;;17.49;67.39;94575.81;4856977;29;20131;-71
2021/05/31 10:14:51;;;;;;;4.70;4.32;;;;;;;17.34;65.49;94570.94;4861838;29;20088;-72
2021/05/31 10:17:17;;;;;;;4.72;4.13;;;;;;;17.76;63.18;94561.31;4850971;29;20033;-72
2021/05/31 10:19:43;;;;;;;3.83;3.53;;;;;;;17.73;64.24;94563.59;4863328;29;20025;-71
2021/05/31 10:22:10;;;;;;;3.97;3.70;;;;;;;17.34;64.55;94565.72;4865696;29;20041;-72
2021/05/31 10:24:36;;;;;;;4.60;3.42;;;;;;;17.45;63.88;94560.75;4857609;29;20029;-74
2021/05/31 10:27:03;;;;;;;3.97;3.67;;;;;;;17.85;62.56;94559.19;4838849;29;20382;-72
2021/05/31 10:29:29;;;;;;;3.78;3.47;;;;;;;17.80;66.24;94559.88;4859984;29;20522;-72
2021/05/31 10:31:55;;;;;;;3.35;2.88;;;;;;;18.27;63.11;94555.47;4873054;29;20096;-73
2021/05/31 10:34:22;;;;;;;3.63;3.38;;;;;;;17.84;60.66;94552.34;4874267;29;20075;-72
2021/05/31 10:36:52;;;;;;;3.30;3.10;;;;;;;18.40;61.85;94554.44;4882636;29;20040;-71
2021/05/31 10:39:27;;;;;;;4.38;3.17;;;;;;;18.11;62.81;94548.28;4862238;29;20401;-74
2021/05/31 10:42:08;;;;;;;3.45;3.25;;;;;;;17.77;65.28;94555.06;4877879;29;20501;-72
2021/05/31 10:44:34;;;;;;;3.88;3.22;;;;;;;17.50;62.79;94545.19;4874210;29;20413;-73
2021/05/31 10:47:12;;;;;;;3.58;3.20;;;;;;;17.00;66.14;94548.03;4874586;29;20035;-73
2021/05/31 10:49:38;;;;;;;2.67;2.47;;;;;;;15.89;69.01;94544.72;4857366;29;20028;-71
2021/05/31 10:52:03;;;;;;;2.20;2.10;;;;;;;15.37;70.46;94550.25;4858724;29;20080;-72
2021/05/31 10:54:34;;;;;;;1.60;1.50;;;;;;;15.19;68.27;94548.34;4858015;29;20057;-73
2021/05/31 10:57:04;;;;;;;2.60;1.42;;;;;;;14.85;68.73;94552.13;4859260;29;20037;-73
2021/05/31 10:59:29;;;;;;;;;;;;;;;15.17;68.86;94555.59;4889830;29;20059;-74
2021/05/31 11:01:55;;;;;;;1.48;1.38;;;;;;;15.21;67.46;94548.94;4869128;29;20316;-73
2021/05/31 11:04:23;;;;;;;2.15;1.58;;;;;;;15.32;68.00;94553.50;4868020;29;20037;-73
2021/05/31 11:06:50;;;;;;;2.55;1.50;;;;;;;15.35;68.37;94547.84;4869565;29;20025;-74
2021/05/31 11:09:25;;;;;;;1.60;1.50;;;;;;;15.78;70.67;94543.59;4864709;29;20037;-73
2021/05/31 11:11:56;;;;;;;2.00;1.90;;;;;;;15.96;69.74;94552.50;4850597;29;20041;-74
2021/05/31 11:14:34;;;;;;;3.03;2.15;;;;;;;15.77;70.53;94551.63;4871048;29;20047;-74
2021/05/31 11:17:22;;;;;;;16.17;2.28;;;;;;;15.24;70.29;94556.34;4878565;29;20035;-74
2021/05/31 11:19:52;;;;;;;1.83;1.73;;;;;;;14.98;70.38;94561.69;4875648;29;20071;-72
2021/05/31 11:22:24;;;;;;;1.70;1.60;;;;;;;14.38;71.45;94560.28;4878276;29;20506;-74
2021/05/31 11:24:54;;;;;;;2.58;2.38;;;;;;;14.08;75.38;94571.09;4881533;29;20036;-73
2021/05/31 11:27:24;;;;;;;2.55;2.20;;;;;;;13.79;78.40;94568.09;4852193;29;20025;-74
2021/05/31 11:29:49;;;;;;;2.63;2.45;;;;;;;13.54;82.05;94573.09;4857789;29;20069;-74
2021/05/31 11:32:21;;;;;;;3.20;2.40;;;;;;;13.35;80.57;94574.66;4845036;29;20041;-74
2021/05/31 11:35:00;;;;;;;3.80;2.85;;;;;;;13.27;82.47;94587.81;4876273;29;20033;-75
2021/05/31 11:37:28;;;;;;;5.32;3.03;;;;;;;13.08;84.45;94578.13;4871709;29;20032;-74
2021/05/31 11:39:54;;;;;;;3.47;3.17;;;;;;;12.86;85.24;94571.44;4879100;29;20040;-74
2021/05/31 11:42:19;;;;;;;4.05;3.13;;;;;;;12.73;85.73;94572.19;4873001;29;20021;-75
2021/05/31 11:44:58;;;;;;;3.15;2.85;;;;;;;12.69;86.27;94576.16;4876009;29;20247;-74
2021/05/31 11:47:27;;;;;;;3.17;2.92;;;;;;;12.83;86.79;94566.66;4882029;29;20028;-74
2021/05/31 11:49:53;;;;;;;6.70;4.75;;;;;;;12.91;86.43;94569.88;4880620;29;20597;-73
2021/05/31 11:52:19;;;;;;;4.85;3.85;;;;;;;12.57;87.76;94577.72;4875886;29;20135;-73
2021/05/31 11:54:45;;;;;;;5.47;4.00;;;;;;;12.98;87.30;94573.31;4900608;29;20025;-72
2021/05/31 11:57:17;;;;;;;4.93;4.07;;;;;;;13.32;87.54;94569.84;4859058;29;20051;-74
2021/05/31 11:59:46;;;;;;;3.80;3.53;;;;;;;13.22;87.49;94571.22;4871991;29;20092;-74
2021/05/31 12:02:13;;;;;;;4.20;3.90;;;;;;;13.05;88.86;94563.72;4873782;29;20471;-74
2021/05/31 12:04:40;;;;;;;6.03;3.05;;;;;;;13.40;86.54;94558.44;4872973;29;20029;-73
2021/05/31 12:07:09;;;;;;;4.15;3.60;;;;;;;13.60;86.36;94559.28;4889931;29;20043;-73
2021/05/31 12:09:42;;;;;;;6.90;4.28;;;;;;;13.60;86.18;94562.69;4873676;29;20028;-72
2021/05/31 12:12:12;;;;;;;6.40;5.25;;;;;;;13.70;83.63;94554.47;4878636;29;20029;-73
2021/05/31 12:14:51;;;;;;;4.85;4.40;;;;;;;13.80;82.87;94547.09;4875352;29;20037;-73
2021/05/31 12:17:17;;;;;;;3.20;2.90;;;;;;;13.67;81.77;94544.47;4874171;29;20089;-74
2021/05/31 12:19:43;;;;;;;5.47;2.47;;;;;;;14.05;82.62;94539.44;4880939;29;20054;-72
2021/05/31 12:22:09;;;;;;;4.18;2.53;;;;;;;14.80;81.00;94540.72;4875593;29;20124;-73
2021/05/31 12:24:41;;;;;;;2.42;2.30;;;;;;;14.90;80.70;94538.47;4856103;29;20498;-72
2021/05/31 12:27:07;;;;;;;2.50;2.30;;;;;;;15.11;77.29;94538.16;4854532;29;20051;-71
2021/05/31 12:29:33;;;;;;;2.13;2.03;;;;;;;14.95;72.09;94528.19;4856713;29;20495;-73
2021/05/31 12:31:59;;;;;;;1.52;1.42;;;;;;;14.79;73.08;94524.25;4875408;29;20669;-71
2021/05/31 12:34:25;;;;;;;1.50;1.40;;;;;;;14.97;74.27;94523.56;4872394;29;20029;-73
2021/05/31 12:36:52;;;;;;;1.60;1.50;;;;;;;14.75;72.45;94526.47;4857658;29;20142;-75
2021/05/31 12:39:17;;;;;;;1.70;1.60;;;;;;;14.95;73.75;94523.78;4873316;29;20127;-73
2021/05/31 12:41:43;;;;;;;2.17;1.52;;;;;;;14.98;72.24;94517.34;4872792;29;20411;-73
2021/05/31 12:44:09;;;;;;;2.38;1.60;;;;;;;15.39;77.67;94527.34;4888906;29;20037;-73
2021/05/31 12:46:53;;;;;;;2.90;1.75;;;;;;;14.85;71.76;94520.03;4871507;29;20025;-75
2021/05/31 12:49:25;;;;;;;3.08;1.77;;;;;;;14.89;73.96;94527.25;4872896;29;20414;-75
2021/05/31 12:51:55;;;;;;;1.80;1.38;;;;;;;14.76;68.42;94516.84;4872900;29;20032;-76
2021/05/31 12:54:20;;;;;;;1.90;1.80;;;;;;;14.82;78.23;94536.09;4856997;29;20517;-73
2021/05/31 12:56:46;;;;;;;2.95;2.00;;;;;;;14.56;76.75;94531.75;4888026;29;20071;-72
2021/05/31 12:59:12;;;;;;;2.40;1.73;;;;;;;14.53;78.56;94534.78;4870980;29;20032;-75
2021/05/31 13:01:38;;;;;;;1.80;1.70;;;;;;;14.44;80.74;94522.97;4873683;29;20060;-74
2021/05/31 13:04:03;;;;;;;1.83;1.73;;;;;;;14.37;75.15;94515.19;4856038;29;20033;-74
2021/05/31 13:06:33;;;;;;;1.60;1.50;;;;;;;14.38;75.02;94513.38;4883735;29;20044;-75
2021/05/31 13:08:59;;;;;;;1.90;1.80;;;;;;;14.54;75.07;94512.94;4854304;29;20036;-76
2021/05/31 13:11:24;;;;;;;5.97;1.70;;;;;;;14.27;69.88;94499.94;4867793;29;20084;-76
2021/05/31 13:13:50;;;;;;;4.03;1.80;;;;;;;14.73;75.69;94517.28;4883163;29;20025;-74
2021/05/31 13:16:15;;;;;;;2.35;2.25;;;;;;;14.78;81.37;94513.03;4878923;29;20064;-73
2021/05/31 13:18:45;;;;;;;1.80;1.70;;;;;;;14.82;75.06;94508.22;4882862;29;20039;-74
2021/05/31 13:21:20;;;;;;;2.28;1.85;;;;;;;15.29;72.78;94506.94;4878436;29;20040;-75
2021/05/31 13:23:51;;;;;;;2.65;1.80;;;;;;;15.51;74.99;94504.84;4854957;29;20037;-76
2021/05/31 13:26:24;;;;;;;2.00;1.15;;;;;;;15.52;69.26;94501.19;4872067;29;20112;-74
2021/05/31 13:28:57;;;;;;;1.48;1.33;;;;;;;15.77;68.74;94499.38;4872052;29;20081;-76
2021/05/31 13:31:23;;;;;;;2.35;1.10;;;;;;;15.29;64.32;94497.31;4857474;29;20041;-76
2021/05/31 13:33:50;;;;;;;1.10;0.90;;;;;;;15.41;61.01;94494.03;4879361;29;20039;-73
2021/05/31 13:36:20;;;;;;;1.05;1.05;;;;;;;15.58;65.55;94474.25;4857285;29;20334;-75
2021/05/31 13:38:46;;;;;;;0.98;0.95;;;;;;;15.79;64.61;94507.81;4854852;29;20652;-76
2021/05/31 13:41:12;;;;;;;1.20;1.10;;;;;;;15.63;69.45;94508.34;4872652;29;20021;-75
2021/05/31 13:43:37;;;;;;;1.58;1.20;;;;;;;15.73;68.52;94513.91;4872894;29;20029;-75
2021/05/31 13:46:03;;;;;;;1.55;1.30;;;;;;;16.18;68.72;94504.06;4873635;29;20514;-75
2021/05/31 13:48:29;;;;;;;1.20;1.10;;;;;;;15.69;69.53;94502.28;4871754;29;20025;-76
2021/05/31 13:50:56;;;;;;;3.08;1.33;;;;;;;15.90;69.74;94501.91;4840638;29;23080;-75
2021/05/31 13:53:21;;;;;;;2.80;1.27;;;;;;;15.67;77.48;94497.25;4872484;29;20443;-76
2021/05/31 13:55:47;;;;;;;2.22;1.20;;;;;;;15.73;65.72;94496.41;4870626;29;20033;-75
2021/05/31 13:58:14;;;;;;;4.97;1.70;;;;;;;15.74;71.38;94491.97;4873019;29;20060;-75
2021/05/31 14:00:39;;;;;;;6.13;1.65;;;;;;;15.75;72.89;94502.22;4857141;29;20518;-75
2021/05/31 14:03:05;;;;;;;1.70;1.52;;;;;;;15.58;71.04;94492.50;4874914;29;20032;-75
2021/05/31 14:05:33;;;;;;;1.50;1.40;;;;;;;15.55;69.61;94480.69;4874478;29;20124;-75
2021/05/31 14:07:59;;;;;;;1.23;1.17;;;;;;;15.84;70.92;94492.31;4889399;29;20039;-75
2021/05/31 14:10:25;;;;;;;1.48;1.38;;;;;;;15.92;67.63;94486.03;4858888;29;20135;-75
2021/05/31 14:12:51;;;;;;;1.50;1.40;;;;;;;16.00;68.75;94496.97;4857811;29;20112;-75
2021/05/31 14:15:18;;;;;;;1.13;1.10;;;;;;;15.61;61.82;94482.44;4859410;29;20036;-75
2021/05/31 14:17:43;;;;;;;1.67;1.40;;;;;;;15.96;63.74;94487.19;4702365;29;20038;-75
2021/05/31 14:20:09;;;;;;;3.10;1.40;;;;;;;16.15;67.73;94484.38;4774217;29;20101;-75
2021/05/31 14:22:35;;;;;;;1.30;1.20;;;;;;;15.98;69.64;94491.19;4806481;29;20121;-74
2021/05/31 14:25:01;;;;;;;2.30;1.45;;;;;;;15.78;71.07;94488.75;4765986;29;20050;-75
2021/05/31 14:27:26;;;;;;;1.50;1.40;;;;;;;15.92;64.75;94471.16;4761226;29;20068;-75
2021/05/31 14:29:52;;;;;;;1.00;1.00;;;;;;;15.85;62.17;94473.03;4817288;29;20627;-74
2021/05/31 14:32:17;;;;;;;2.70;1.42;;;;;;;16.49;61.70;94474.38;4820040;29;20040;-74
2021/05/31 14:34:43;;;;;;;1.15;1.10;;;;;;;16.60;63.17;94473.69;4817004;29;20488;-75
2021/05/31 14:37:09;;;;;;;1.52;1.40;;;;;;;16.76;60.42;94473.84;4803674;29;20030;-74
2021/05/31 14:39:35;;;;;;;1.20;1.10;;;;;;;16.93;62.01;94473.25;4832078;29;20057;-74
2021/05/31 14:42:01;;;;;;;5.05;0.98;;;;;;;16.83;62.01;94476.41;4819259;29;20038;-74
2021/05/31 14:44:27;;;;;;;1.90;1.10;;;;;;;16.47;60.97;94474.56;4815800;29;20070;-73
2021/05/31 14:46:52;;;;;;;1.48;1.10;;;;;;;16.58;61.42;94475.69;4815292;29;20036;-74
2021/05/31 14:49:18;;;;;;;1.25;1.15;;;;;;;16.36;66.08;94467.47;4815854;29;20045;-76
2021/05/31 14:51:43;;;;;;;1.40;1.30;;;;;;;16.30;63.39;94463.94;4829078;29;20042;-77
2021/05/31 14:54:09;;;;;;;1.45;1.20;;;;;;;16.42;62.98;94460.56;4819016;29;20030;-76
2021/05/31 14:56:34;;;;;;;1.52;1.05;;;;;;;16.08;66.83;94462.75;4818005;29;20030;-77
2021/05/31 14:59:00;;;;;;;2.72;1.10;;;;;;;16.44;66.35;94471.63;4791299;29;20063;-78
2021/05/31 15:01:25;;;;;;;4.32;1.30;;;;;;;16.28;65.37;94465.13;4832430;29;20078;-78
2021/05/31 15:03:51;;;;;;;2.53;1.30;;;;;;;16.30;66.96;94468.34;4832777;29;20522;-82
2021/05/31 15:06:17;;;;;;;1.60;1.45;;;;;;;16.54;66.24;94467.47;4833482;29;20412;-76
2021/05/31 15:08:42;;;;;;;1.42;1.27;;;;;;;16.29;67.06;94461.53;4831518;29;20627;-77
2021/05/31 15:11:09;;;;;;;2.58;1.23;;;;;;;16.02;63.59;94450.53;4818312;29;20034;-80
2021/05/31 15:13:35;;;;;;;1.42;1.33;;;;;;;15.58;65.18;94467.22;4844447;29;20045;-77
2021/05/31 15:16:00;;;;;;;1.92;1.70;;;;;;;15.99;66.02;94461.41;4833847;29;20038;-77
2021/05/31 15:18:26;;;;;;;2.50;2.30;;;;;;;15.57;64.21;94457.00;4832653;29;20030;-79
2021/05/31 15:20:51;;;;;;;2.53;1.50;;;;;;;15.79;66.58;94469.47;4818937;29;20668;-75
2021/05/31 15:23:17;;;;;;;5.45;1.25;;;;;;;15.68;66.32;94458.91;4817040;29;20029;-75
2021/05/31 15:25:43;;;;;;;2.42;1.52;;;;;;;16.16;65.53;94461.66;4847918;29;20034;-76
2021/05/31 15:28:08;;;;;;;2.55;1.50;;;;;;;15.62;64.14;94455.34;4835885;29;20113;-80
2021/05/31 15:30:34;;;;;;;1.60;1.50;;;;;;;15.58;64.11;94437.69;4844118;29;20400;-78
2021/05/31 15:32:59;;;;;;;12.82;11.55;;;;;;;15.68;63.89;94448.44;4831568;29;20501;-81
2021/05/31 15:35:26;;;;;;;8.10;7.40;;;;;;;15.91;63.73;94451.25;4823311;29;20038;-77
2021/05/31 15:37:53;;;;;;;3.55;3.30;;;;;;;16.13;64.16;94451.63;4828381;29;20113;-80
2021/05/31 15:40:18;;;;;;;2.35;2.00;;;;;;;16.27;64.99;94453.91;4846045;29;20411;-79
2021/05/31 15:42:44;;;;;;;2.35;1.45;;;;;;;16.14;68.17;94467.13;4830986;29;20061;-80
2021/05/31 15:45:12;;;;;;;2.20;1.60;;;;;;;15.77;68.01;94474.09;4831902;29;20086;-78
2021/05/31 15:47:38;;;;;;;2.40;1.40;;;;;;;15.55;69.52;94469.44;4831371;29;20029;-81
2021/05/31 15:50:08;;;;;;;2.00;1.38;;;;;;;15.37;68.41;94464.16;4833642;29;20056;-80
2021/05/31 15:52:33;;;;;;;3.13;1.20;;;;;;;15.11;70.03;94475.56;4819261;29;20031;-78
2021/05/31 15:55:00;;;;;;;1.33;1.20;;;;;;;14.96;69.06;94470.59;4829857;29;20041;-83
2021/05/31 15:57:26;;;;;;;1.67;1.00;;;;;;;14.96;67.61;94478.44;4833587;29;20461;-81
2021/05/31 15:59:51;;;;;;;1.30;1.20;;;;;;;14.94;68.60;94467.41;4833175;29;20027;-77
2021/05/31 16:02:20;;;;;;;2.17;1.40;;;;;;;14.73;71.02;94473.75;4833084;29;20062;-79
2021/05/31 16:04:49;;;;;;;1.40;1.30;;;;;;;14.55;69.97;94471.00;4833102;29;20041;-85
2021/05/31 16:07:15;;;;;;;2.33;1.20;;;;;;;14.73;68.38;94459.91;4833845;29;20041;-84
2021/05/31 16:09:40;;;;;;;2.47;1.20;;;;;;;14.75;69.47;94476.94;4827712;29;20270;-83
2021/05/31 16:12:06;;;;;;;1.73;1.20;;;;;;;14.63;70.82;94478.63;4833896;29;20105;-80
2021/05/31 16:14:32;;;;;;;2.85;1.27;;;;;;;14.67;70.01;94465.97;4832399;29;20038;-89
2021/05/31 16:16:57;;;;;;;2.20;1.58;;;;;;;14.66;69.76;94482.59;4814542;29;20030;-82
2021/05/31 16:19:23;;;;;;;1.75;1.20;;;;;;;14.70;68.52;94471.53;4820643;29;20053;-83
2021/05/31 16:21:48;;;;;;;2.83;1.15;;;;;;;14.60;69.98;94468.59;4831907;29;20104;-86
2021/05/31 16:24:18;;;;;;;2.35;0.98;;;;;;;14.57;71.15;94473.44;4826382;29;20018;-82
2021/05/31 16:26:43;;;;;;;1.08;1.08;;;;;;;14.63;70.81;94481.22;4825750;29;20034;-81
2021/05/31 16:29:09;;;;;;;1.17;1.08;;;;;;;14.41;73.25;94481.72;4787291;29;20118;-82
2021/05/31 16:31:34;;;;;;;0.90;0.90;;;;;;;14.44;72.31;94492.53;4802160;29;20034;-83
2021/05/31 16:34:00;;;;;;;1.30;1.00;;;;;;;14.64;72.23;94487.25;4819741;29;20432;-83
2021/05/31 16:36:26;;;;;;;1.00;0.90;;;;;;;14.60;72.08;94480.84;4832076;29;20489;-87
2021/05/31 16:38:51;;;;;;;0.77;0.77;;;;;;;14.47;70.83;94488.69;4833412;29;20037;-81